<?xml version="1.0" encoding="UTF-8" standalone="no" ?><gpx xmlns="http://www.topografix.com/GPX/1/1" xmlns:gpxx="http://www.garmin.com/xmlschemas/GpxExtensions/v3" xmlns:wptx1="http://www.garmin.com/xmlschemas/WaypointExtension/v1" xmlns:gpxtpx="http://www.garmin.com/xmlschemas/TrackPointExtension/v1" creator="GuideVTT.com" version="1.1" xmlns:xsi="http://www.w3.org/2001/XMLSchema-instance" xsi:schemaLocation="http://www.topografix.com/GPX/1/1 http://www.topografix.com/GPX/1/1/gpx.xsd http://www.garmin.com/xmlschemas/GpxExtensions/v3 http://www8.garmin.com/xmlschemas/GpxExtensionsv3.xsd http://www.garmin.com/xmlschemas/WaypointExtension/v1 http://www8.garmin.com/xmlschemas/WaypointExtensionv1.xsd http://www.garmin.com/xmlschemas/TrackPointExtension/v1 http://www.garmin.com/xmlschemas/TrackPointExtensionv1.xsd">
<metadata><link href="http://www.garmin.com"><text>Garmin International</text></link><time>2013-06-22T15:13:50Z</time></metadata>
<trk><name>delemont-rangiers.gpx</name><extensions><gpxx:TrackExtension><gpxx:DisplayColor>Cyan</gpxx:DisplayColor></gpxx:TrackExtension></extensions><trkseg>
<trkpt lat="47.36236100" lon="7.34869480"><ele></ele><time>2014-6-17T6:44:24Z</time></trkpt>
<trkpt lat="47.36291890" lon="7.34852310"><ele></ele><time>2014-6-17T6:44:27Z</time></trkpt>
<trkpt lat="47.36300470" lon="7.34740730"><ele></ele><time>2014-6-17T6:44:30Z</time></trkpt>
<trkpt lat="47.36360550" lon="7.34723570"><ele></ele><time>2014-6-17T6:44:33Z</time></trkpt>
<trkpt lat="47.36375570" lon="7.34699960"><ele></ele><time>2014-6-17T6:44:36Z</time></trkpt>
<trkpt lat="47.36397030" lon="7.34648470"><ele></ele><time>2014-6-17T6:44:39Z</time></trkpt>
<trkpt lat="47.36414190" lon="7.34536890"><ele></ele><time>2014-6-17T6:44:42Z</time></trkpt>
<trkpt lat="47.36457110" lon="7.34489680"><ele></ele><time>2014-6-17T6:44:45Z</time></trkpt>
<trkpt lat="47.36508610" lon="7.34468220"><ele></ele><time>2014-6-17T6:44:48Z</time></trkpt>
<trkpt lat="47.36523630" lon="7.34371660"><ele></ele><time>2014-6-17T6:44:51Z</time></trkpt>
<trkpt lat="47.36461400" lon="7.34223600"><ele></ele><time>2014-6-17T6:44:54Z</time></trkpt>
<trkpt lat="47.36527920" lon="7.34169960"><ele></ele><time>2014-6-17T6:44:57Z</time></trkpt>
<trkpt lat="47.36502170" lon="7.34086280"><ele></ele><time>2014-6-17T6:45:0Z</time></trkpt>
<trkpt lat="47.36540790" lon="7.34021900"><ele></ele><time>2014-6-17T6:45:3Z</time></trkpt>
<trkpt lat="47.36609460" lon="7.33966110"><ele></ele><time>2014-6-17T6:45:6Z</time></trkpt>
<trkpt lat="47.36667390" lon="7.33884570"><ele></ele><time>2014-6-17T6:45:9Z</time></trkpt>
<trkpt lat="47.36740350" lon="7.33863120"><ele></ele><time>2014-6-17T6:45:12Z</time></trkpt>
<trkpt lat="47.36860510" lon="7.33785870"><ele></ele><time>2014-6-17T6:45:15Z</time></trkpt>
<trkpt lat="47.36864810" lon="7.33770850"><ele></ele><time>2014-6-17T6:45:18Z</time></trkpt>
<trkpt lat="47.36841200" lon="7.33770850"><ele></ele><time>2014-6-17T6:45:21Z</time></trkpt>
<trkpt lat="47.36824040" lon="7.33730080"><ele></ele><time>2014-6-17T6:45:24Z</time></trkpt>
<trkpt lat="47.36845490" lon="7.33708620"><ele></ele><time>2014-6-17T6:45:27Z</time></trkpt>
<trkpt lat="47.36832620" lon="7.33554120"><ele></ele><time>2014-6-17T6:45:30Z</time></trkpt>
<trkpt lat="47.36944200" lon="7.33509060"><ele></ele><time>2014-6-17T6:45:33Z</time></trkpt>
<trkpt lat="47.36907720" lon="7.33414650"><ele></ele><time>2014-6-17T6:45:36Z</time></trkpt>
<trkpt lat="47.36899140" lon="7.33330970"><ele></ele><time>2014-6-17T6:45:39Z</time></trkpt>
<trkpt lat="47.36999990" lon="7.33266590"><ele></ele><time>2014-6-17T6:45:42Z</time></trkpt>
<trkpt lat="47.37036470" lon="7.33281610"><ele></ele><time>2014-6-17T6:45:45Z</time></trkpt>
<trkpt lat="47.37128730" lon="7.33210800"><ele></ele><time>2014-6-17T6:45:48Z</time></trkpt>
<trkpt lat="47.37167360" lon="7.33227970"><ele></ele><time>2014-6-17T6:45:51Z</time></trkpt>
<trkpt lat="47.37223150" lon="7.33176470"><ele></ele><time>2014-6-17T6:45:54Z</time></trkpt>
<trkpt lat="47.37240310" lon="7.33202220"><ele></ele><time>2014-6-17T6:45:57Z</time></trkpt>
<trkpt lat="47.37263920" lon="7.33307360"><ele></ele><time>2014-6-17T6:46:0Z</time></trkpt>
<trkpt lat="47.37233880" lon="7.33472590"><ele></ele><time>2014-6-17T6:46:3Z</time></trkpt>
<trkpt lat="47.37242460" lon="7.33740810"><ele></ele><time>2014-6-17T6:46:6Z</time></trkpt>
<trkpt lat="47.37293960" lon="7.33985420"><ele></ele><time>2014-6-17T6:46:9Z</time></trkpt>
<trkpt lat="47.37356190" lon="7.33976840"><ele></ele><time>2014-6-17T6:46:12Z</time></trkpt>
<trkpt lat="47.37459180" lon="7.33903880"><ele></ele><time>2014-6-17T6:46:15Z</time></trkpt>
<trkpt lat="47.37555740" lon="7.33725790"><ele></ele><time>2014-6-17T6:46:18Z</time></trkpt>
<trkpt lat="47.37620120" lon="7.33536960"><ele></ele><time>2014-6-17T6:46:21Z</time></trkpt>
<trkpt lat="47.37729550" lon="7.33444690"><ele></ele><time>2014-6-17T6:46:24Z</time></trkpt>
<trkpt lat="47.37710240" lon="7.33448980"><ele></ele><time>2014-6-17T6:46:27Z</time></trkpt>
<trkpt lat="47.37699510" lon="7.32957600"><ele></ele><time>2014-6-17T6:46:30Z</time></trkpt>
<trkpt lat="47.37620120" lon="7.32045650"><ele></ele><time>2014-6-17T6:46:33Z</time></trkpt>
<trkpt lat="47.37523560" lon="7.31758120"><ele></ele><time>2014-6-17T6:46:36Z</time></trkpt>
<trkpt lat="47.37472060" lon="7.31552120"><ele></ele><time>2014-6-17T6:46:39Z</time></trkpt>
<trkpt lat="47.37495660" lon="7.31318240"><ele></ele><time>2014-6-17T6:46:42Z</time></trkpt>
<trkpt lat="47.37373350" lon="7.30936290"><ele></ele><time>2014-6-17T6:46:45Z</time></trkpt>
<trkpt lat="47.37300400" lon="7.30653050"><ele></ele><time>2014-6-17T6:46:48Z</time></trkpt>
<trkpt lat="47.37270360" lon="7.30586530"><ele></ele><time>2014-6-17T6:46:51Z</time></trkpt>
<trkpt lat="47.37225290" lon="7.30526450"><ele></ele><time>2014-6-17T6:46:54Z</time></trkpt>
<trkpt lat="47.37190960" lon="7.30432030"><ele></ele><time>2014-6-17T6:46:57Z</time></trkpt>
<trkpt lat="47.37120150" lon="7.30406280"><ele></ele><time>2014-6-17T6:47:0Z</time></trkpt>
<trkpt lat="47.37083670" lon="7.30344060"><ele></ele><time>2014-6-17T6:47:3Z</time></trkpt>
<trkpt lat="47.37040760" lon="7.30307580"><ele></ele><time>2014-6-17T6:47:6Z</time></trkpt>
<trkpt lat="47.37030030" lon="7.30200290"><ele></ele><time>2014-6-17T6:47:9Z</time></trkpt>
<trkpt lat="47.36997840" lon="7.30080130"><ele></ele><time>2014-6-17T6:47:12Z</time></trkpt>
<trkpt lat="47.36942050" lon="7.30035070"><ele></ele><time>2014-6-17T6:47:15Z</time></trkpt>
<trkpt lat="47.36776830" lon="7.29850530"><ele></ele><time>2014-6-17T6:47:18Z</time></trkpt>
<trkpt lat="47.36753230" lon="7.29730370"><ele></ele><time>2014-6-17T6:47:21Z</time></trkpt>
<trkpt lat="47.36770390" lon="7.29597330"><ele></ele><time>2014-6-17T6:47:24Z</time></trkpt>
<trkpt lat="47.36896990" lon="7.29475020"><ele></ele><time>2014-6-17T6:47:27Z</time></trkpt>
<trkpt lat="47.37066510" lon="7.29414940"><ele></ele><time>2014-6-17T6:47:30Z</time></trkpt>
<trkpt lat="47.37098690" lon="7.29365590"><ele></ele><time>2014-6-17T6:47:33Z</time></trkpt>
<trkpt lat="47.37128730" lon="7.29344130"><ele></ele><time>2014-6-17T6:47:36Z</time></trkpt>
<trkpt lat="47.37160920" lon="7.29271170"><ele></ele><time>2014-6-17T6:47:39Z</time></trkpt>
<trkpt lat="47.37315420" lon="7.29191780"><ele></ele><time>2014-6-17T6:47:42Z</time></trkpt>
<trkpt lat="47.37321850" lon="7.29163890"><ele></ele><time>2014-6-17T6:47:45Z</time></trkpt>
<trkpt lat="47.37332580" lon="7.29251860"><ele></ele><time>2014-6-17T6:47:48Z</time></trkpt>
<trkpt lat="47.37401250" lon="7.29118820"><ele></ele><time>2014-6-17T6:47:51Z</time></trkpt>
<trkpt lat="47.37459180" lon="7.29127410"><ele></ele><time>2014-6-17T6:47:54Z</time></trkpt>
<trkpt lat="47.37497810" lon="7.29166030"><ele></ele><time>2014-6-17T6:47:57Z</time></trkpt>
<trkpt lat="47.37570760" lon="7.29507210"><ele></ele><time>2014-6-17T6:48:0Z</time></trkpt>
<trkpt lat="47.37583640" lon="7.29841950"><ele></ele><time>2014-6-17T6:48:3Z</time></trkpt>
<trkpt lat="47.37617970" lon="7.29957820"><ele></ele><time>2014-6-17T6:48:6Z</time></trkpt>
<trkpt lat="47.37673760" lon="7.30069400"><ele></ele><time>2014-6-17T6:48:9Z</time></trkpt>
<trkpt lat="47.37658740" lon="7.30138060"><ele></ele><time>2014-6-17T6:48:12Z</time></trkpt>
<trkpt lat="47.37667320" lon="7.30204580"><ele></ele><time>2014-6-17T6:48:15Z</time></trkpt>
<trkpt lat="47.37703800" lon="7.30256080"><ele></ele><time>2014-6-17T6:48:18Z</time></trkpt>
<trkpt lat="47.37776760" lon="7.30472800"><ele></ele><time>2014-6-17T6:48:21Z</time></trkpt>
<trkpt lat="47.37869020" lon="7.30644460"><ele></ele><time>2014-6-17T6:48:24Z</time></trkpt>
<trkpt lat="47.37903360" lon="7.30687380"><ele></ele><time>2014-6-17T6:48:27Z</time></trkpt>
<trkpt lat="47.37920520" lon="7.30747460"><ele></ele><time>2014-6-17T6:48:30Z</time></trkpt>
<trkpt lat="47.37984900" lon="7.30848310"><ele></ele><time>2014-6-17T6:48:33Z</time></trkpt>
<trkpt lat="47.37989190" lon="7.30874060"><ele></ele><time>2014-6-17T6:48:36Z</time></trkpt>
<trkpt lat="47.37961290" lon="7.30874060"><ele></ele><time>2014-6-17T6:48:39Z</time></trkpt>
<trkpt lat="47.37862590" lon="7.30811830"><ele></ele><time>2014-6-17T6:48:42Z</time></trkpt>
<trkpt lat="47.37774610" lon="7.30736730"><ele></ele><time>2014-6-17T6:48:45Z</time></trkpt>
<trkpt lat="47.37684490" lon="7.30732440"><ele></ele><time>2014-6-17T6:48:48Z</time></trkpt>
<trkpt lat="47.37720970" lon="7.30852600"><ele></ele><time>2014-6-17T6:48:51Z</time></trkpt>
<trkpt lat="47.37804650" lon="7.30979200"><ele></ele><time>2014-6-17T6:48:54Z</time></trkpt>
<trkpt lat="47.37946270" lon="7.31451270"><ele></ele><time>2014-6-17T6:48:57Z</time></trkpt>
<trkpt lat="47.37982750" lon="7.31723790"><ele></ele><time>2014-6-17T6:49:0Z</time></trkpt>
<trkpt lat="47.37969880" lon="7.31775280"><ele></ele><time>2014-6-17T6:49:3Z</time></trkpt>
<trkpt lat="47.38006350" lon="7.31781720"><ele></ele><time>2014-6-17T6:49:6Z</time></trkpt>
<trkpt lat="47.38072870" lon="7.31663700"><ele></ele><time>2014-6-17T6:49:9Z</time></trkpt>
<trkpt lat="47.38126520" lon="7.31661560"><ele></ele><time>2014-6-17T6:49:12Z</time></trkpt>
<trkpt lat="47.38165140" lon="7.31683020"><ele></ele><time>2014-6-17T6:49:15Z</time></trkpt>
<trkpt lat="47.38184450" lon="7.31736660"><ele></ele><time>2014-6-17T6:49:18Z</time></trkpt>
<trkpt lat="47.38158700" lon="7.31590750"><ele></ele><time>2014-6-17T6:49:21Z</time></trkpt>
<trkpt lat="47.38085750" lon="7.31444840"><ele></ele><time>2014-6-17T6:49:24Z</time></trkpt>
<trkpt lat="47.38087890" lon="7.31414790"><ele></ele><time>2014-6-17T6:49:27Z</time></trkpt>
<trkpt lat="47.38132950" lon="7.31374030"><ele></ele><time>2014-6-17T6:49:30Z</time></trkpt>
<trkpt lat="47.38171580" lon="7.31283900"><ele></ele><time>2014-6-17T6:49:33Z</time></trkpt>
<trkpt lat="47.38220930" lon="7.30972770"><ele></ele><time>2014-6-17T6:49:36Z</time></trkpt>
<trkpt lat="47.38184450" lon="7.30841880"><ele></ele><time>2014-6-17T6:49:39Z</time></trkpt>
<trkpt lat="47.38188740" lon="7.30764630"><ele></ele><time>2014-6-17T6:49:42Z</time></trkpt>
<trkpt lat="47.38167290" lon="7.30614420"><ele></ele><time>2014-6-17T6:49:45Z</time></trkpt>
<trkpt lat="47.38175870" lon="7.30526450"><ele></ele><time>2014-6-17T6:49:48Z</time></trkpt>
<trkpt lat="47.38152270" lon="7.30459930"><ele></ele><time>2014-6-17T6:49:51Z</time></trkpt>
<trkpt lat="47.38126520" lon="7.30288270"><ele></ele><time>2014-6-17T6:49:54Z</time></trkpt>
<trkpt lat="47.38072870" lon="7.30127330"><ele></ele><time>2014-6-17T6:49:57Z</time></trkpt>
<trkpt lat="47.37909790" lon="7.29045870"><ele></ele><time>2014-6-17T6:50:0Z</time></trkpt>
<trkpt lat="47.37931250" lon="7.28848460"><ele></ele><time>2014-6-17T6:50:3Z</time></trkpt>
<trkpt lat="47.37952710" lon="7.28178980"><ele></ele><time>2014-6-17T6:50:6Z</time></trkpt>
<trkpt lat="47.38006350" lon="7.27344270"><ele></ele><time>2014-6-17T6:50:9Z</time></trkpt>
<trkpt lat="47.38027810" lon="7.27209090"><ele></ele><time>2014-6-17T6:50:12Z</time></trkpt>
<trkpt lat="47.38160850" lon="7.27024560"><ele></ele><time>2014-6-17T6:50:15Z</time></trkpt>
<trkpt lat="47.38242390" lon="7.26739170"><ele></ele><time>2014-6-17T6:50:18Z</time></trkpt>
<trkpt lat="47.38250970" lon="7.26606130"><ele></ele><time>2014-6-17T6:50:21Z</time></trkpt>
<trkpt lat="47.38240240" lon="7.26496700"><ele></ele><time>2014-6-17T6:50:24Z</time></trkpt>
<trkpt lat="47.38259550" lon="7.26367950"><ele></ele><time>2014-6-17T6:50:27Z</time></trkpt>
<trkpt lat="47.38270280" lon="7.25983860"><ele></ele><time>2014-6-17T6:50:30Z</time></trkpt>
<trkpt lat="47.38298180" lon="7.25857260"><ele></ele><time>2014-6-17T6:50:33Z</time></trkpt>
<trkpt lat="47.38366840" lon="7.25659850"><ele></ele><time>2014-6-17T6:50:36Z</time></trkpt>
<trkpt lat="47.38471980" lon="7.25125550"><ele></ele><time>2014-6-17T6:50:39Z</time></trkpt>
<trkpt lat="47.38502030" lon="7.24874500"><ele></ele><time>2014-6-17T6:50:42Z</time></trkpt>
<trkpt lat="47.38474130" lon="7.24754330"><ele></ele><time>2014-6-17T6:50:45Z</time></trkpt>
<trkpt lat="47.38585710" lon="7.24215750"><ele></ele><time>2014-6-17T6:50:48Z</time></trkpt>
<trkpt lat="47.38570690" lon="7.24198580"><ele></ele><time>2014-6-17T6:50:51Z</time></trkpt>
<trkpt lat="47.38566400" lon="7.24127770"><ele></ele><time>2014-6-17T6:50:54Z</time></trkpt>
<trkpt lat="47.38463400" lon="7.23655700"><ele></ele><time>2014-6-17T6:50:57Z</time></trkpt>
<trkpt lat="47.38392590" lon="7.23196510"><ele></ele><time>2014-6-17T6:51:0Z</time></trkpt>
<trkpt lat="47.38373280" lon="7.22977640"><ele></ele><time>2014-6-17T6:51:3Z</time></trkpt>
<trkpt lat="47.38373280" lon="7.22741600"><ele></ele><time>2014-6-17T6:51:6Z</time></trkpt>
<trkpt lat="47.38426920" lon="7.22664360"><ele></ele><time>2014-6-17T6:51:9Z</time></trkpt>
<trkpt lat="47.38504170" lon="7.22085000"><ele></ele><time>2014-6-17T6:51:12Z</time></trkpt>
<trkpt lat="47.38508460" lon="7.21997020"><ele></ele><time>2014-6-17T6:51:15Z</time></trkpt>
<trkpt lat="47.38493440" lon="7.21947670"><ele></ele><time>2014-6-17T6:51:18Z</time></trkpt>
<trkpt lat="47.38502030" lon="7.21975560"><ele></ele><time>2014-6-17T6:51:21Z</time></trkpt>
<trkpt lat="47.38484860" lon="7.22063540"><ele></ele><time>2014-6-17T6:51:24Z</time></trkpt>
<trkpt lat="47.38291740" lon="7.22838160"><ele></ele><time>2014-6-17T6:51:27Z</time></trkpt>
<trkpt lat="47.38143680" lon="7.23655700"><ele></ele><time>2014-6-17T6:51:30Z</time></trkpt>
<trkpt lat="47.38094330" lon="7.24097730"><ele></ele><time>2014-6-17T6:51:33Z</time></trkpt>
<trkpt lat="47.38083600" lon="7.24451780"><ele></ele><time>2014-6-17T6:51:36Z</time></trkpt>
<trkpt lat="47.38038540" lon="7.24644900"><ele></ele><time>2014-6-17T6:51:39Z</time></trkpt>
<trkpt lat="47.37918380" lon="7.25024700"><ele></ele><time>2014-6-17T6:51:42Z</time></trkpt>
<trkpt lat="47.37860440" lon="7.25277900"><ele></ele><time>2014-6-17T6:51:45Z</time></trkpt>
<trkpt lat="47.37823960" lon="7.25320820"><ele></ele><time>2014-6-17T6:51:48Z</time></trkpt>
<trkpt lat="47.37770320" lon="7.25344420"><ele></ele><time>2014-6-17T6:51:51Z</time></trkpt>
<trkpt lat="47.37695220" lon="7.25483890"><ele></ele><time>2014-6-17T6:51:54Z</time></trkpt>
<trkpt lat="47.37605090" lon="7.25440980"><ele></ele><time>2014-6-17T6:51:57Z</time></trkpt>
<trkpt lat="47.37587930" lon="7.25393770"><ele></ele><time>2014-6-17T6:52:0Z</time></trkpt>
<trkpt lat="47.37577200" lon="7.25256440"><ele></ele><time>2014-6-17T6:52:3Z</time></trkpt>
<trkpt lat="47.37654450" lon="7.24737170"><ele></ele><time>2014-6-17T6:52:6Z</time></trkpt>
<trkpt lat="47.37635140" lon="7.24702840"><ele></ele><time>2014-6-17T6:52:9Z</time></trkpt>
<trkpt lat="47.37575050" lon="7.24722150"><ele></ele><time>2014-6-17T6:52:12Z</time></trkpt>
<trkpt lat="47.37628700" lon="7.24717860"><ele></ele><time>2014-6-17T6:52:15Z</time></trkpt>
<trkpt lat="47.37652300" lon="7.24737170"><ele></ele><time>2014-6-17T6:52:18Z</time></trkpt>
<trkpt lat="47.37615820" lon="7.24732880"><ele></ele><time>2014-6-17T6:52:21Z</time></trkpt>
<trkpt lat="47.37594370" lon="7.24842310"><ele></ele><time>2014-6-17T6:52:24Z</time></trkpt>
<trkpt lat="47.37416270" lon="7.25116970"><ele></ele><time>2014-6-17T6:52:27Z</time></trkpt>
<trkpt lat="47.37429140" lon="7.25144860"><ele></ele><time>2014-6-17T6:52:30Z</time></trkpt>
<trkpt lat="47.37454890" lon="7.25147010"><ele></ele><time>2014-6-17T6:52:33Z</time></trkpt>
<trkpt lat="47.37422700" lon="7.25192070"><ele></ele><time>2014-6-17T6:52:36Z</time></trkpt>
<trkpt lat="47.37405540" lon="7.25265030"><ele></ele><time>2014-6-17T6:52:39Z</time></trkpt>
<trkpt lat="47.37293960" lon="7.25451710"><ele></ele><time>2014-6-17T6:52:42Z</time></trkpt>
<trkpt lat="47.37111570" lon="7.25983860"><ele></ele><time>2014-6-17T6:52:45Z</time></trkpt>
<trkpt lat="47.37122300" lon="7.25973130"><ele></ele><time>2014-6-17T6:52:48Z</time></trkpt>
<trkpt lat="47.37130880" lon="7.26033210"><ele></ele><time>2014-6-17T6:52:51Z</time></trkpt>
<trkpt lat="47.37160920" lon="7.26078270"><ele></ele><time>2014-6-17T6:52:54Z</time></trkpt>
<trkpt lat="47.37175940" lon="7.26144790"><ele></ele><time>2014-6-17T6:52:57Z</time></trkpt>
<trkpt lat="47.37163070" lon="7.26305720"><ele></ele><time>2014-6-17T6:53:0Z</time></trkpt>
<trkpt lat="47.37100840" lon="7.26370100"><ele></ele><time>2014-6-17T6:53:3Z</time></trkpt>
<trkpt lat="47.37055780" lon="7.26548190"><ele></ele><time>2014-6-17T6:53:6Z</time></trkpt>
<trkpt lat="47.36860510" lon="7.26807830"><ele></ele><time>2014-6-17T6:53:9Z</time></trkpt>
<trkpt lat="47.37027880" lon="7.26863620"><ele></ele><time>2014-6-17T6:53:12Z</time></trkpt>
<trkpt lat="47.36965660" lon="7.27007390"><ele></ele><time>2014-6-17T6:53:15Z</time></trkpt>
<trkpt lat="47.36899140" lon="7.27239130"><ele></ele><time>2014-6-17T6:53:18Z</time></trkpt>
<trkpt lat="47.36935620" lon="7.27101800"><ele></ele><time>2014-6-17T6:53:21Z</time></trkpt>
<trkpt lat="47.36959220" lon="7.27142570"><ele></ele><time>2014-6-17T6:53:24Z</time></trkpt>
<trkpt lat="47.36877680" lon="7.27597480"><ele></ele><time>2014-6-17T6:53:27Z</time></trkpt>
<trkpt lat="47.36924890" lon="7.28103880"><ele></ele><time>2014-6-17T6:53:30Z</time></trkpt>
<trkpt lat="47.36899140" lon="7.28093150"><ele></ele><time>2014-6-17T6:53:33Z</time></trkpt>
<trkpt lat="47.36890550" lon="7.28118900"><ele></ele><time>2014-6-17T6:53:36Z</time></trkpt>
<trkpt lat="47.36939910" lon="7.28198290"><ele></ele><time>2014-6-17T6:53:39Z</time></trkpt>
<trkpt lat="47.36952780" lon="7.28251930"><ele></ele><time>2014-6-17T6:53:42Z</time></trkpt>
<trkpt lat="47.36931320" lon="7.28258370"><ele></ele><time>2014-6-17T6:53:45Z</time></trkpt>
<trkpt lat="47.36993550" lon="7.28352790"><ele></ele><time>2014-6-17T6:53:48Z</time></trkpt>
<trkpt lat="47.37118010" lon="7.29170320"><ele></ele><time>2014-6-17T6:53:51Z</time></trkpt>
<trkpt lat="47.37184520" lon="7.29262590"><ele></ele><time>2014-6-17T6:53:54Z</time></trkpt>
<trkpt lat="47.37049340" lon="7.29256150"><ele></ele><time>2014-6-17T6:53:57Z</time></trkpt>
<trkpt lat="47.37083670" lon="7.29387040"><ele></ele><time>2014-6-17T6:54:0Z</time></trkpt>
<trkpt lat="47.36999990" lon="7.29359150"><ele></ele><time>2014-6-17T6:54:3Z</time></trkpt>
<trkpt lat="47.36984970" lon="7.29423520"><ele></ele><time>2014-6-17T6:54:6Z</time></trkpt>
<trkpt lat="47.36961360" lon="7.29444980"><ele></ele><time>2014-6-17T6:54:9Z</time></trkpt>
<trkpt lat="47.36879830" lon="7.29462150"><ele></ele><time>2014-6-17T6:54:12Z</time></trkpt>
<trkpt lat="47.36802580" lon="7.29509350"><ele></ele><time>2014-6-17T6:54:15Z</time></trkpt>
<trkpt lat="47.36748930" lon="7.29638100"><ele></ele><time>2014-6-17T6:54:18Z</time></trkpt>
<trkpt lat="47.36725330" lon="7.29753970"><ele></ele><time>2014-6-17T6:54:21Z</time></trkpt>
<trkpt lat="47.36731770" lon="7.29818340"><ele></ele><time>2014-6-17T6:54:24Z</time></trkpt>
<trkpt lat="47.36791850" lon="7.30030780"><ele></ele><time>2014-6-17T6:54:27Z</time></trkpt>
<trkpt lat="47.36821890" lon="7.30301140"><ele></ele><time>2014-6-17T6:54:30Z</time></trkpt>
<trkpt lat="47.36912010" lon="7.30479240"><ele></ele><time>2014-6-17T6:54:33Z</time></trkpt>
<trkpt lat="47.36922740" lon="7.30532880"><ele></ele><time>2014-6-17T6:54:36Z</time></trkpt>
<trkpt lat="47.36851930" lon="7.30884790"><ele></ele><time>2014-6-17T6:54:39Z</time></trkpt>
<trkpt lat="47.36933470" lon="7.31137990"><ele></ele><time>2014-6-17T6:54:42Z</time></trkpt>
<trkpt lat="47.36952780" lon="7.31614350"><ele></ele><time>2014-6-17T6:54:45Z</time></trkpt>
<trkpt lat="47.36972090" lon="7.31755970"><ele></ele><time>2014-6-17T6:54:48Z</time></trkpt>
<trkpt lat="47.36993550" lon="7.31826780"><ele></ele><time>2014-6-17T6:54:51Z</time></trkpt>
<trkpt lat="47.37023590" lon="7.31871840"><ele></ele><time>2014-6-17T6:54:54Z</time></trkpt>
<trkpt lat="47.37203840" lon="7.31981280"><ele></ele><time>2014-6-17T6:54:57Z</time></trkpt>
<trkpt lat="47.37302540" lon="7.32095000"><ele></ele><time>2014-6-17T6:55:0Z</time></trkpt>
<trkpt lat="47.37278940" lon="7.32204440"><ele></ele><time>2014-6-17T6:55:3Z</time></trkpt>
<trkpt lat="47.37251040" lon="7.32562780"><ele></ele><time>2014-6-17T6:55:6Z</time></trkpt>
<trkpt lat="47.37216710" lon="7.32670070"><ele></ele><time>2014-6-17T6:55:9Z</time></trkpt>
<trkpt lat="47.37090110" lon="7.32770920"><ele></ele><time>2014-6-17T6:55:12Z</time></trkpt>
<trkpt lat="47.36914160" lon="7.33049870"><ele></ele><time>2014-6-17T6:55:15Z</time></trkpt>
<trkpt lat="47.36830470" lon="7.33144280"><ele></ele><time>2014-6-17T6:55:18Z</time></trkpt>
<trkpt lat="47.36789700" lon="7.33236550"><ele></ele><time>2014-6-17T6:55:21Z</time></trkpt>
<trkpt lat="47.36736060" lon="7.33266590"><ele></ele><time>2014-6-17T6:55:24Z</time></trkpt>
<trkpt lat="47.36673830" lon="7.33378170"><ele></ele><time>2014-6-17T6:55:27Z</time></trkpt>
<trkpt lat="47.36639500" lon="7.33406070"><ele></ele><time>2014-6-17T6:55:30Z</time></trkpt>
<trkpt lat="47.36566540" lon="7.33571290"><ele></ele><time>2014-6-17T6:55:33Z</time></trkpt>
<trkpt lat="47.36523630" lon="7.33747240"><ele></ele><time>2014-6-17T6:55:36Z</time></trkpt>
<trkpt lat="47.36549380" lon="7.33938220"><ele></ele><time>2014-6-17T6:55:39Z</time></trkpt>
<trkpt lat="47.36536500" lon="7.34019760"><ele></ele><time>2014-6-17T6:55:42Z</time></trkpt>
<trkpt lat="47.36476420" lon="7.34122750"><ele></ele><time>2014-6-17T6:55:45Z</time></trkpt>
<trkpt lat="47.36424920" lon="7.34165670"><ele></ele><time>2014-6-17T6:55:48Z</time></trkpt>
<trkpt lat="47.36461400" lon="7.34257940"><ele></ele><time>2014-6-17T6:55:51Z</time></trkpt>
<trkpt lat="47.36433510" lon="7.34262230"><ele></ele><time>2014-6-17T6:55:54Z</time></trkpt>
<trkpt lat="47.36452820" lon="7.34247210"><ele></ele><time>2014-6-17T6:55:57Z</time></trkpt>
<trkpt lat="47.36465690" lon="7.34260080"><ele></ele><time>2014-6-17T6:56:0Z</time></trkpt>
<trkpt lat="47.36536500" lon="7.34408140"><ele></ele><time>2014-6-17T6:56:3Z</time></trkpt>
<trkpt lat="47.36485000" lon="7.34517570"><ele></ele><time>2014-6-17T6:56:6Z</time></trkpt>
<trkpt lat="47.36371280" lon="7.34558340"><ele></ele><time>2014-6-17T6:56:9Z</time></trkpt>
<trkpt lat="47.36259700" lon="7.34661340"><ele></ele><time>2014-6-17T6:56:12Z</time></trkpt>
<trkpt lat="47.36279010" lon="7.34787940"><ele></ele><time>2014-6-17T6:56:15Z</time></trkpt>
<trkpt lat="47.36270430" lon="7.34955310"><ele></ele><time>2014-6-17T6:56:18Z</time></trkpt>
<trkpt lat="47.36263990" lon="7.34976770"><ele></ele><time>2014-6-17T6:56:21Z</time></trkpt>
<trkpt lat="47.36233950" lon="7.34998230"><ele></ele><time>2014-6-17T6:56:24Z</time></trkpt>
<trkpt lat="47.36208200" lon="7.34933850"><ele></ele><time>2014-6-17T6:56:27Z</time></trkpt>
</trkseg></trk></gpx>